sensor_id;sensor_type;location;lat;lon;timestamp;pressure;altitude;pressure_sealevel;temperature
67822;BMP180;54434;50.096;20.082;2022-08-21T00:02:15;98397.80;;;18.70
67822;BMP180;54434;50.096;20.082;2022-08-21T00:04:52;98398.80;;;18.70
67822;BMP180;54434;50.096;20.082;2022-08-21T00:07:31;98399.00;;;18.68
67822;BMP180;54434;50.096;20.082;2022-08-21T00:10:10;98395.80;;;18.60
67822;BMP180;54434;50.096;20.082;2022-08-21T00:12:47;98395.00;;;18.60
67822;BMP180;54434;50.096;20.082;2022-08-21T00:15:28;98390.40;;;18.60
67822;BMP180;54434;50.096;20.082;2022-08-21T00:18:07;98382.20;;;18.60
67822;BMP180;54434;50.096;20.082;2022-08-21T00:20:45;98379.60;;;18.60
67822;BMP180;54434;50.096;20.082;2022-08-21T00:23:22;98377.60;;;18.60
67822;BMP180;54434;50.096;20.082;2022-08-21T00:25:58;98379.00;;;18.58
67822;BMP180;54434;50.096;20.082;2022-08-21T00:28:36;98386.40;;;18.50
67822;BMP180;54434;50.096;20.082;2022-08-21T00:31:12;98382.40;;;18.50
67822;BMP180;54434;50.096;20.082;2022-08-21T00:33:48;98384.20;;;18.50
67822;BMP180;54434;50.096;20.082;2022-08-21T00:36:24;98380.60;;;18.50
67822;BMP180;54434;50.096;20.082;2022-08-21T00:39:00;98376.60;;;18.50
67822;BMP180;54434;50.096;20.082;2022-08-21T00:41:39;98371.80;;;18.50
67822;BMP180;54434;50.096;20.082;2022-08-21T00:44:17;98368.40;;;18.50
67822;BMP180;54434;50.096;20.082;2022-08-21T00:46:53;98368.00;;;18.50
67822;BMP180;54434;50.096;20.082;2022-08-21T00:49:29;98364.40;;;18.44
67822;BMP180;54434;50.096;20.082;2022-08-21T00:52:08;98360.80;;;18.40
67822;BMP180;54434;50.096;20.082;2022-08-21T00:54:45;98357.20;;;18.40
67822;BMP180;54434;50.096;20.082;2022-08-21T00:57:32;98348.80;;;18.40
67822;BMP180;54434;50.096;20.082;2022-08-21T01:00:23;98341.60;;;18.40
67822;BMP180;54434;50.096;20.082;2022-08-21T01:03:04;98344.20;;;18.40
67822;BMP180;54434;50.096;20.082;2022-08-21T01:05:45;98344.40;;;18.30
67822;BMP180;54434;50.096;20.082;2022-08-21T01:08:22;98339.80;;;18.30
67822;BMP180;54434;50.096;20.082;2022-08-21T01:11:00;98335.40;;;18.30
67822;BMP180;54434;50.096;20.082;2022-08-21T01:13:39;98335.20;;;18.30
67822;BMP180;54434;50.096;20.082;2022-08-21T01:16:23;98333.80;;;18.30
67822;BMP180;54434;50.096;20.082;2022-08-21T01:19:00;98337.40;;;18.30
67822;BMP180;54434;50.096;20.082;2022-08-21T01:21:36;98338.80;;;18.20
67822;BMP180;54434;50.096;20.082;2022-08-21T01:24:12;98343.60;;;18.20
67822;BMP180;54434;50.096;20.082;2022-08-21T01:26:49;98341.40;;;18.20
67822;BMP180;54434;50.096;20.082;2022-08-21T01:29:36;98343.20;;;18.20
67822;BMP180;54434;50.096;20.082;2022-08-21T01:32:18;98341.60;;;18.20
67822;BMP180;54434;50.096;20.082;2022-08-21T01:34:55;98340.60;;;18.20
67822;BMP180;54434;50.096;20.082;2022-08-21T01:37:31;98337.00;;;18.20
67822;BMP180;54434;50.096;20.082;2022-08-21T01:40:10;98331.60;;;18.20
67822;BMP180;54434;50.096;20.082;2022-08-21T01:42:48;98326.60;;;18.20
67822;BMP180;54434;50.096;20.082;2022-08-21T01:45:24;98321.40;;;18.20
67822;BMP180;54434;50.096;20.082;2022-08-21T01:48:00;98318.80;;;18.20
67822;BMP180;54434;50.096;20.082;2022-08-21T01:50:38;98312.60;;;18.20
67822;BMP180;54434;50.096;20.082;2022-08-21T01:53:14;98312.00;;;18.20
67822;BMP180;54434;50.096;20.082;2022-08-21T01:55:50;98306.00;;;18.18
67822;BMP180;54434;50.096;20.082;2022-08-21T01:58:26;98303.80;;;18.16
67822;BMP180;54434;50.096;20.082;2022-08-21T02:01:02;98307.60;;;18.10
67822;BMP180;54434;50.096;20.082;2022-08-21T02:03:40;98306.60;;;18.10
67822;BMP180;54434;50.096;20.082;2022-08-21T02:06:18;98308.00;;;18.10
67822;BMP180;54434;50.096;20.082;2022-08-21T02:08:55;98309.60;;;18.10
67822;BMP180;54434;50.096;20.082;2022-08-21T02:11:32;98304.00;;;18.02
67822;BMP180;54434;50.096;20.082;2022-08-21T02:14:10;98305.80;;;18.00
67822;BMP180;54434;50.096;20.082;2022-08-21T02:16:48;98303.60;;;18.00
67822;BMP180;54434;50.096;20.082;2022-08-21T02:19:39;98306.80;;;18.00
67822;BMP180;54434;50.096;20.082;2022-08-21T02:22:15;98305.20;;;18.00
67822;BMP180;54434;50.096;20.082;2022-08-21T02:24:51;98296.60;;;17.92
67822;BMP180;54434;50.096;20.082;2022-08-21T02:27:29;98291.40;;;17.90
67822;BMP180;54434;50.096;20.082;2022-08-21T02:30:18;98290.60;;;17.90
67822;BMP180;54434;50.096;20.082;2022-08-21T02:32:56;98289.40;;;17.90
67822;BMP180;54434;50.096;20.082;2022-08-21T02:35:33;98280.60;;;17.84
67822;BMP180;54434;50.096;20.082;2022-08-21T02:38:20;98278.00;;;17.80
67822;BMP180;54434;50.096;20.082;2022-08-21T02:40:57;98271.60;;;17.80
67822;BMP180;54434;50.096;20.082;2022-08-21T02:43:34;98271.60;;;17.80
67822;BMP180;54434;50.096;20.082;2022-08-21T02:46:13;98271.20;;;17.76
67822;BMP180;54434;50.096;20.082;2022-08-21T02:48:50;98273.00;;;17.70
67822;BMP180;54434;50.096;20.082;2022-08-21T02:51:26;98265.60;;;17.70
67822;BMP180;54434;50.096;20.082;2022-08-21T02:54:02;98264.60;;;17.70
67822;BMP180;54434;50.096;20.082;2022-08-21T02:56:38;98265.60;;;17.64
67822;BMP180;54434;50.096;20.082;2022-08-21T02:59:14;98269.80;;;17.60
67822;BMP180;54434;50.096;20.082;2022-08-21T03:01:50;98267.60;;;17.60
67822;BMP180;54434;50.096;20.082;2022-08-21T03:04:26;98268.60;;;17.60
67822;BMP180;54434;50.096;20.082;2022-08-21T03:07:02;98270.60;;;17.60
67822;BMP180;54434;50.096;20.082;2022-08-21T03:09:45;98271.20;;;17.60
67822;BMP180;54434;50.096;20.082;2022-08-21T03:12:29;98271.40;;;17.60
67822;BMP180;54434;50.096;20.082;2022-08-21T03:15:08;98277.00;;;17.60
67822;BMP180;54434;50.096;20.082;2022-08-21T03:17:45;98281.20;;;17.60
67822;BMP180;54434;50.096;20.082;2022-08-21T03:20:27;98286.00;;;17.60
67822;BMP180;54434;50.096;20.082;2022-08-21T03:23:05;98291.20;;;17.60
67822;BMP180;54434;50.096;20.082;2022-08-21T03:25:49;98293.20;;;17.56
67822;BMP180;54434;50.096;20.082;2022-08-21T03:28:29;98293.40;;;17.52
67822;BMP180;54434;50.096;20.082;2022-08-21T03:31:05;98294.00;;;17.54
67822;BMP180;54434;50.096;20.082;2022-08-21T03:33:41;98296.60;;;17.60
67822;BMP180;54434;50.096;20.082;2022-08-21T03:36:18;98305.00;;;17.60
67822;BMP180;54434;50.096;20.082;2022-08-21T03:38:54;98298.60;;;17.60
67822;BMP180;54434;50.096;20.082;2022-08-21T03:41:30;98299.60;;;17.60
67822;BMP180;54434;50.096;20.082;2022-08-21T03:44:07;98298.80;;;17.68
67822;BMP180;54434;50.096;20.082;2022-08-21T03:46:43;98300.40;;;17.70
67822;BMP180;54434;50.096;20.082;2022-08-21T03:49:19;98299.20;;;17.70
67822;BMP180;54434;50.096;20.082;2022-08-21T03:51:56;98302.00;;;17.70
67822;BMP180;54434;50.096;20.082;2022-08-21T03:54:33;98302.60;;;17.80
67822;BMP180;54434;50.096;20.082;2022-08-21T03:57:10;98301.80;;;17.80
67822;BMP180;54434;50.096;20.082;2022-08-21T03:59:47;98303.40;;;17.80
67822;BMP180;54434;50.096;20.082;2022-08-21T04:02:24;98304.40;;;17.80
67822;BMP180;54434;50.096;20.082;2022-08-21T04:05:00;98301.60;;;17.80
67822;BMP180;54434;50.096;20.082;2022-08-21T04:07:36;98306.40;;;17.80
67822;BMP180;54434;50.096;20.082;2022-08-21T04:10:13;98307.80;;;17.88
67822;BMP180;54434;50.096;20.082;2022-08-21T04:12:50;98306.60;;;17.90
67822;BMP180;54434;50.096;20.082;2022-08-21T04:15:28;98309.40;;;17.90
67822;BMP180;54434;50.096;20.082;2022-08-21T04:18:07;98319.00;;;18.00
67822;BMP180;54434;50.096;20.082;2022-08-21T04:20:47;98319.20;;;18.00
67822;BMP180;54434;50.096;20.082;2022-08-21T04:23:25;98319.80;;;18.00
67822;BMP180;54434;50.096;20.082;2022-08-21T04:26:01;98316.40;;;18.10
67822;BMP180;54434;50.096;20.082;2022-08-21T04:28:37;98318.80;;;18.10
67822;BMP180;54434;50.096;20.082;2022-08-21T04:31:14;98326.40;;;18.12
67822;BMP180;54434;50.096;20.082;2022-08-21T04:33:50;98327.80;;;18.20
67822;BMP180;54434;50.096;20.082;2022-08-21T04:36:26;98327.40;;;18.30
67822;BMP180;54434;50.096;20.082;2022-08-21T04:39:02;98331.20;;;18.30
67822;BMP180;54434;50.096;20.082;2022-08-21T04:41:38;98330.60;;;18.40
67822;BMP180;54434;50.096;20.082;2022-08-21T04:44:16;98332.80;;;18.50
67822;BMP180;54434;50.096;20.082;2022-08-21T04:46:52;98333.60;;;18.50
67822;BMP180;54434;50.096;20.082;2022-08-21T04:49:28;98332.80;;;18.60
67822;BMP180;54434;50.096;20.082;2022-08-21T04:52:06;98332.00;;;18.60
67822;BMP180;54434;50.096;20.082;2022-08-21T04:54:43;98331.00;;;18.70
67822;BMP180;54434;50.096;20.082;2022-08-21T04:57:22;98333.60;;;18.78
67822;BMP180;54434;50.096;20.082;2022-08-21T05:00:20;98329.20;;;18.80
67822;BMP180;54434;50.096;20.082;2022-08-21T05:03:01;98331.80;;;18.90
67822;BMP180;54434;50.096;20.082;2022-08-21T05:05:39;98326.40;;;18.90
67822;BMP180;54434;50.096;20.082;2022-08-21T05:08:21;98331.60;;;19.00
67822;BMP180;54434;50.096;20.082;2022-08-21T05:11:00;98334.80;;;19.10
67822;BMP180;54434;50.096;20.082;2022-08-21T05:13:36;98339.20;;;19.30
67822;BMP180;54434;50.096;20.082;2022-08-21T05:16:12;98334.60;;;19.48
67822;BMP180;54434;50.096;20.082;2022-08-21T05:19:09;98339.40;;;19.60
67822;BMP180;54434;50.096;20.082;2022-08-21T05:21:48;98339.60;;;19.62
67822;BMP180;54434;50.096;20.082;2022-08-21T05:24:25;98343.20;;;19.80
67822;BMP180;54434;50.096;20.082;2022-08-21T05:27:01;98343.20;;;19.80
67822;BMP180;54434;50.096;20.082;2022-08-21T05:29:38;98344.20;;;19.80
67822;BMP180;54434;50.096;20.082;2022-08-21T05:32:16;98347.00;;;19.80
67822;BMP180;54434;50.096;20.082;2022-08-21T05:34:52;98346.40;;;19.80
67822;BMP180;54434;50.096;20.082;2022-08-21T05:37:28;98355.20;;;19.90
67822;BMP180;54434;50.096;20.082;2022-08-21T05:40:08;98353.40;;;19.94
67822;BMP180;54434;50.096;20.082;2022-08-21T05:42:58;98348.00;;;20.04
67822;BMP180;54434;50.096;20.082;2022-08-21T05:45:36;98350.60;;;20.12
67822;BMP180;54434;50.096;20.082;2022-08-21T05:48:22;98347.00;;;20.20
67822;BMP180;54434;50.096;20.082;2022-08-21T05:50:58;98348.80;;;20.30
67822;BMP180;54434;50.096;20.082;2022-08-21T05:53:40;98346.40;;;20.34
67822;BMP180;54434;50.096;20.082;2022-08-21T05:56:17;98346.40;;;20.40
67822;BMP180;54434;50.096;20.082;2022-08-21T05:58:54;98344.40;;;20.56
67822;BMP180;54434;50.096;20.082;2022-08-21T06:01:30;98339.60;;;20.68
67822;BMP180;54434;50.096;20.082;2022-08-21T06:04:07;98343.60;;;20.80
67822;BMP180;54434;50.096;20.082;2022-08-21T06:06:43;98344.00;;;20.82
67822;BMP180;54434;50.096;20.082;2022-08-21T06:09:20;98345.60;;;20.90
67822;BMP180;54434;50.096;20.082;2022-08-21T06:11:56;98347.20;;;21.00
67822;BMP180;54434;50.096;20.082;2022-08-21T06:14:32;98347.20;;;21.10
67822;BMP180;54434;50.096;20.082;2022-08-21T06:17:11;98345.60;;;21.20
67822;BMP180;54434;50.096;20.082;2022-08-21T06:19:52;98345.60;;;21.30
67822;BMP180;54434;50.096;20.082;2022-08-21T06:22:29;98350.80;;;21.30
67822;BMP180;54434;50.096;20.082;2022-08-21T06:25:06;98348.40;;;21.36
67822;BMP180;54434;50.096;20.082;2022-08-21T06:27:43;98349.00;;;21.40
67822;BMP180;54434;50.096;20.082;2022-08-21T06:30:21;98346.60;;;21.50
67822;BMP180;54434;50.096;20.082;2022-08-21T06:32:57;98345.20;;;21.58
67822;BMP180;54434;50.096;20.082;2022-08-21T06:35:34;98343.40;;;21.60
67822;BMP180;54434;50.096;20.082;2022-08-21T06:38:13;98344.80;;;21.70
67822;BMP180;54434;50.096;20.082;2022-08-21T06:40:49;98345.40;;;21.70
67822;BMP180;54434;50.096;20.082;2022-08-21T06:43:25;98346.00;;;21.70
67822;BMP180;54434;50.096;20.082;2022-08-21T06:46:13;98346.60;;;21.80
67822;BMP180;54434;50.096;20.082;2022-08-21T06:48:49;98353.00;;;21.90
67822;BMP180;54434;50.096;20.082;2022-08-21T06:51:26;98357.40;;;22.00
67822;BMP180;54434;50.096;20.082;2022-08-21T06:54:03;98354.80;;;22.10
67822;BMP180;54434;50.096;20.082;2022-08-21T06:56:39;98354.20;;;22.20
67822;BMP180;54434;50.096;20.082;2022-08-21T06:59:15;98358.20;;;22.30
67822;BMP180;54434;50.096;20.082;2022-08-21T07:01:51;98359.60;;;22.40
67822;BMP180;54434;50.096;20.082;2022-08-21T07:04:27;98369.80;;;22.48
67822;BMP180;54434;50.096;20.082;2022-08-21T07:07:04;98366.60;;;22.50
67822;BMP180;54434;50.096;20.082;2022-08-21T07:09:40;98364.40;;;22.50
67822;BMP180;54434;50.096;20.082;2022-08-21T07:12:16;98364.20;;;22.50
67822;BMP180;54434;50.096;20.082;2022-08-21T07:14:52;98364.40;;;22.40
67822;BMP180;54434;50.096;20.082;2022-08-21T07:17:28;98364.80;;;22.40
67822;BMP180;54434;50.096;20.082;2022-08-21T07:20:07;98367.00;;;22.48
67822;BMP180;54434;50.096;20.082;2022-08-21T07:22:44;98366.40;;;22.46
67822;BMP180;54434;50.096;20.082;2022-08-21T07:25:20;98363.80;;;22.60
67822;BMP180;54434;50.096;20.082;2022-08-21T07:27:56;98368.20;;;22.68
67822;BMP180;54434;50.096;20.082;2022-08-21T07:30:33;98373.20;;;22.70
67822;BMP180;54434;50.096;20.082;2022-08-21T07:33:09;98372.40;;;22.70
67822;BMP180;54434;50.096;20.082;2022-08-21T07:35:45;98370.40;;;22.70
67822;BMP180;54434;50.096;20.082;2022-08-21T07:38:22;98370.80;;;22.70
67822;BMP180;54434;50.096;20.082;2022-08-21T07:41:01;98370.60;;;22.70
67822;BMP180;54434;50.096;20.082;2022-08-21T07:43:39;98375.00;;;22.78
67822;BMP180;54434;50.096;20.082;2022-08-21T07:46:20;98374.80;;;22.80
67822;BMP180;54434;50.096;20.082;2022-08-21T07:48:56;98374.00;;;22.80
67822;BMP180;54434;50.096;20.082;2022-08-21T07:51:34;98371.60;;;22.84
67822;BMP180;54434;50.096;20.082;2022-08-21T07:54:10;98366.40;;;22.90
67822;BMP180;54434;50.096;20.082;2022-08-21T07:56:50;98366.20;;;23.00
67822;BMP180;54434;50.096;20.082;2022-08-21T07:59:26;98365.60;;;23.10
67822;BMP180;54434;50.096;20.082;2022-08-21T08:02:03;98364.60;;;23.20
67822;BMP180;54434;50.096;20.082;2022-08-21T08:04:39;98366.00;;;23.30
67822;BMP180;54434;50.096;20.082;2022-08-21T08:07:25;98367.60;;;23.40
67822;BMP180;54434;50.096;20.082;2022-08-21T08:10:02;98364.80;;;23.40
67822;BMP180;54434;50.096;20.082;2022-08-21T08:12:41;98366.60;;;23.50
67822;BMP180;54434;50.096;20.082;2022-08-21T08:15:23;98364.60;;;23.50
67822;BMP180;54434;50.096;20.082;2022-08-21T08:18:00;98368.20;;;23.50
67822;BMP180;54434;50.096;20.082;2022-08-21T08:20:37;98364.80;;;23.52
67822;BMP180;54434;50.096;20.082;2022-08-21T08:23:14;98365.00;;;23.60
67822;BMP180;54434;50.096;20.082;2022-08-21T08:25:50;98362.20;;;23.60
67822;BMP180;54434;50.096;20.082;2022-08-21T08:28:27;98366.80;;;23.70
67822;BMP180;54434;50.096;20.082;2022-08-21T08:31:04;98366.20;;;23.70
67822;BMP180;54434;50.096;20.082;2022-08-21T08:33:40;98368.60;;;23.70
67822;BMP180;54434;50.096;20.082;2022-08-21T08:36:20;98369.00;;;23.80
67822;BMP180;54434;50.096;20.082;2022-08-21T08:39:07;98367.60;;;23.80
67822;BMP180;54434;50.096;20.082;2022-08-21T08:41:48;98370.80;;;23.80
67822;BMP180;54434;50.096;20.082;2022-08-21T08:44:32;98366.40;;;23.80
67822;BMP180;54434;50.096;20.082;2022-08-21T08:47:12;98366.00;;;23.80
67822;BMP180;54434;50.096;20.082;2022-08-21T08:50:00;98364.40;;;23.90
67822;BMP180;54434;50.096;20.082;2022-08-21T08:52:43;98366.00;;;24.00
67822;BMP180;54434;50.096;20.082;2022-08-21T08:55:28;98368.60;;;24.10
67822;BMP180;54434;50.096;20.082;2022-08-21T08:58:09;98369.00;;;24.20
67822;BMP180;54434;50.096;20.082;2022-08-21T09:00:52;98367.40;;;24.34
67822;BMP180;54434;50.096;20.082;2022-08-21T09:03:31;98360.80;;;24.50
67822;BMP180;54434;50.096;20.082;2022-08-21T09:06:28;98357.40;;;24.70
67822;BMP180;54434;50.096;20.082;2022-08-21T09:09:28;98353.00;;;24.94
67822;BMP180;54434;50.096;20.082;2022-08-21T09:12:15;98356.20;;;25.20
67822;BMP180;54434;50.096;20.082;2022-08-21T09:15:15;98356.20;;;25.38
67822;BMP180;54434;50.096;20.082;2022-08-21T09:18:19;98353.20;;;25.56
67822;BMP180;54434;50.096;20.082;2022-08-21T09:21:11;98349.00;;;25.80
67822;BMP180;54434;50.096;20.082;2022-08-21T09:24:02;98344.40;;;26.16
67822;BMP180;54434;50.096;20.082;2022-08-21T09:26:57;98343.00;;;26.40
67822;BMP180;54434;50.096;20.082;2022-08-21T09:29:38;98345.00;;;26.66
67822;BMP180;54434;50.096;20.082;2022-08-21T09:32:21;98342.20;;;26.80
67822;BMP180;54434;50.096;20.082;2022-08-21T09:35:17;98341.60;;;27.00
67822;BMP180;54434;50.096;20.082;2022-08-21T09:37:58;98338.60;;;27.00
67822;BMP180;54434;50.096;20.082;2022-08-21T09:40:42;98332.20;;;27.10
67822;BMP180;54434;50.096;20.082;2022-08-21T09:43:24;98330.40;;;27.20
67822;BMP180;54434;50.096;20.082;2022-08-21T09:46:20;98331.80;;;27.30
67822;BMP180;54434;50.096;20.082;2022-08-21T09:48:59;98332.00;;;27.40
67822;BMP180;54434;50.096;20.082;2022-08-21T09:51:38;98333.20;;;27.50
67822;BMP180;54434;50.096;20.082;2022-08-21T09:54:23;98331.00;;;27.50
67822;BMP180;54434;50.096;20.082;2022-08-21T09:57:14;98330.20;;;27.60
67822;BMP180;54434;50.096;20.082;2022-08-21T10:00:29;98324.00;;;27.60
67822;BMP180;54434;50.096;20.082;2022-08-21T10:03:22;98322.00;;;27.60
67822;BMP180;54434;50.096;20.082;2022-08-21T10:06:06;98321.80;;;27.80
67822;BMP180;54434;50.096;20.082;2022-08-21T10:08:44;98324.80;;;27.86
67822;BMP180;54434;50.096;20.082;2022-08-21T10:11:29;98323.20;;;27.80
67822;BMP180;54434;50.096;20.082;2022-08-21T10:14:21;98323.60;;;27.90
67822;BMP180;54434;50.096;20.082;2022-08-21T10:17:12;98328.60;;;27.90
67822;BMP180;54434;50.096;20.082;2022-08-21T10:20:05;98324.60;;;27.90
67822;BMP180;54434;50.096;20.082;2022-08-21T10:23:08;98325.40;;;27.80
67822;BMP180;54434;50.096;20.082;2022-08-21T10:26:02;98325.00;;;27.90
67822;BMP180;54434;50.096;20.082;2022-08-21T10:29:05;98324.80;;;28.00
67822;BMP180;54434;50.096;20.082;2022-08-21T10:31:56;98329.40;;;28.10
67822;BMP180;54434;50.096;20.082;2022-08-21T10:34:54;98325.60;;;28.10
67822;BMP180;54434;50.096;20.082;2022-08-21T10:37:56;98326.80;;;28.10
67822;BMP180;54434;50.096;20.082;2022-08-21T10:40:42;98326.60;;;28.00
67822;BMP180;54434;50.096;20.082;2022-08-21T10:43:38;98325.80;;;28.00
67822;BMP180;54434;50.096;20.082;2022-08-21T10:46:35;98326.20;;;28.10
67822;BMP180;54434;50.096;20.082;2022-08-21T10:49:32;98323.40;;;28.20
67822;BMP180;54434;50.096;20.082;2022-08-21T10:52:53;98322.20;;;28.30
67822;BMP180;54434;50.096;20.082;2022-08-21T10:55:44;98326.80;;;28.46
67822;BMP180;54434;50.096;20.082;2022-08-21T10:58:28;98329.00;;;28.50
67822;BMP180;54434;50.096;20.082;2022-08-21T11:01:11;98324.60;;;28.70
67822;BMP180;54434;50.096;20.082;2022-08-21T11:03:59;98321.80;;;28.80
67822;BMP180;54434;50.096;20.082;2022-08-21T11:06:44;98318.80;;;28.90
67822;BMP180;54434;50.096;20.082;2022-08-21T11:09:26;98322.00;;;29.16
67822;BMP180;54434;50.096;20.082;2022-08-21T11:12:16;98319.60;;;29.20
67822;BMP180;54434;50.096;20.082;2022-08-21T11:15:11;98312.20;;;29.10
67822;BMP180;54434;50.096;20.082;2022-08-21T11:18:19;98313.80;;;29.10
67822;BMP180;54434;50.096;20.082;2022-08-21T11:21:09;98310.60;;;29.10
67822;BMP180;54434;50.096;20.082;2022-08-21T11:24:00;98313.80;;;29.10
67822;BMP180;54434;50.096;20.082;2022-08-21T11:26:49;98311.80;;;29.10
67822;BMP180;54434;50.096;20.082;2022-08-21T11:29:33;98313.40;;;28.88
67822;BMP180;54434;50.096;20.082;2022-08-21T11:32:55;98308.20;;;28.50
67822;BMP180;54434;50.096;20.082;2022-08-21T11:35:50;98311.80;;;27.96
67822;BMP180;54434;50.096;20.082;2022-08-21T11:38:38;98317.60;;;27.50
67822;BMP180;54434;50.096;20.082;2022-08-21T11:41:29;98316.40;;;27.30
67822;BMP180;54434;50.096;20.082;2022-08-21T11:44:22;98319.40;;;27.16
67822;BMP180;54434;50.096;20.082;2022-08-21T11:47:08;98322.00;;;27.00
67822;BMP180;54434;50.096;20.082;2022-08-21T11:50:14;98320.60;;;26.80
67822;BMP180;54434;50.096;20.082;2022-08-21T11:53:24;98315.60;;;26.70
67822;BMP180;54434;50.096;20.082;2022-08-21T11:56:10;98317.20;;;26.60
67822;BMP180;54434;50.096;20.082;2022-08-21T11:58:53;98320.80;;;26.60
67822;BMP180;54434;50.096;20.082;2022-08-21T12:01:36;98313.80;;;26.60
67822;BMP180;54434;50.096;20.082;2022-08-21T12:04:29;98309.60;;;26.50
67822;BMP180;54434;50.096;20.082;2022-08-21T12:07:31;98314.20;;;26.40
67822;BMP180;54434;50.096;20.082;2022-08-21T12:10:16;98318.40;;;26.40
67822;BMP180;54434;50.096;20.082;2022-08-21T12:13:07;98319.00;;;26.30
67822;BMP180;54434;50.096;20.082;2022-08-21T12:15:44;98320.60;;;26.30
67822;BMP180;54434;50.096;20.082;2022-08-21T12:18:33;98322.40;;;26.50
67822;BMP180;54434;50.096;20.082;2022-08-21T12:21:24;98325.00;;;26.70
67822;BMP180;54434;50.096;20.082;2022-08-21T12:24:32;98323.00;;;26.80
67822;BMP180;54434;50.096;20.082;2022-08-21T12:27:30;98312.80;;;26.86
67822;BMP180;54434;50.096;20.082;2022-08-21T12:30:38;98308.40;;;26.90
67822;BMP180;54434;50.096;20.082;2022-08-21T12:33:30;98300.60;;;26.88
67822;BMP180;54434;50.096;20.082;2022-08-21T12:36:13;98304.00;;;26.80
67822;BMP180;54434;50.096;20.082;2022-08-21T12:38:54;98304.80;;;26.80
67822;BMP180;54434;50.096;20.082;2022-08-21T12:41:43;98305.80;;;26.64
67822;BMP180;54434;50.096;20.082;2022-08-21T12:44:31;98311.20;;;26.40
67822;BMP180;54434;50.096;20.082;2022-08-21T12:47:21;98320.00;;;26.20
67822;BMP180;54434;50.096;20.082;2022-08-21T12:50:08;98316.80;;;26.10
67822;BMP180;54434;50.096;20.082;2022-08-21T12:52:54;98309.40;;;26.00
67822;BMP180;54434;50.096;20.082;2022-08-21T12:55:35;98303.60;;;26.00
67822;BMP180;54434;50.096;20.082;2022-08-21T12:58:24;98297.40;;;26.00
67822;BMP180;54434;50.096;20.082;2022-08-21T13:01:06;98296.80;;;26.04
67822;BMP180;54434;50.096;20.082;2022-08-21T13:03:44;98297.60;;;26.00
67822;BMP180;54434;50.096;20.082;2022-08-21T13:06:40;98302.40;;;26.00
67822;BMP180;54434;50.096;20.082;2022-08-21T13:09:27;98304.20;;;26.10
67822;BMP180;54434;50.096;20.082;2022-08-21T13:12:08;98312.80;;;26.20
67822;BMP180;54434;50.096;20.082;2022-08-21T13:14:48;98312.60;;;26.20
67822;BMP180;54434;50.096;20.082;2022-08-21T13:17:29;98313.60;;;26.20
67822;BMP180;54434;50.096;20.082;2022-08-21T13:20:20;98315.00;;;26.10
67822;BMP180;54434;50.096;20.082;2022-08-21T13:22:59;98311.40;;;26.00
67822;BMP180;54434;50.096;20.082;2022-08-21T13:25:39;98311.00;;;26.00
67822;BMP180;54434;50.096;20.082;2022-08-21T13:28:16;98312.20;;;25.90
67822;BMP180;54434;50.096;20.082;2022-08-21T13:30:55;98318.00;;;25.80
67822;BMP180;54434;50.096;20.082;2022-08-21T13:33:33;98321.40;;;25.70
67822;BMP180;54434;50.096;20.082;2022-08-21T13:36:19;98328.20;;;25.70
67822;BMP180;54434;50.096;20.082;2022-08-21T13:38:56;98331.00;;;25.60
67822;BMP180;54434;50.096;20.082;2022-08-21T13:41:37;98326.20;;;25.50
67822;BMP180;54434;50.096;20.082;2022-08-21T13:44:24;98317.80;;;25.40
67822;BMP180;54434;50.096;20.082;2022-08-21T13:47:12;98316.60;;;25.20
67822;BMP180;54434;50.096;20.082;2022-08-21T13:49:53;98321.40;;;25.10
67822;BMP180;54434;50.096;20.082;2022-08-21T13:52:33;98327.60;;;25.00
67822;BMP180;54434;50.096;20.082;2022-08-21T13:55:17;98331.20;;;24.90
67822;BMP180;54434;50.096;20.082;2022-08-21T13:58:06;98329.60;;;24.70
67822;BMP180;54434;50.096;20.082;2022-08-21T14:00:51;98334.40;;;24.60
67822;BMP180;54434;50.096;20.082;2022-08-21T14:03:42;98333.80;;;24.60
67822;BMP180;54434;50.096;20.082;2022-08-21T14:06:22;98332.80;;;24.58
67822;BMP180;54434;50.096;20.082;2022-08-21T14:09:09;98331.00;;;24.60
67822;BMP180;54434;50.096;20.082;2022-08-21T14:11:46;98330.80;;;24.52
67822;BMP180;54434;50.096;20.082;2022-08-21T14:14:28;98331.20;;;24.50
67822;BMP180;54434;50.096;20.082;2022-08-21T14:17:09;98324.60;;;24.50
67822;BMP180;54434;50.096;20.082;2022-08-21T14:20:11;98319.20;;;24.50
67822;BMP180;54434;50.096;20.082;2022-08-21T14:22:49;98316.60;;;24.50
67822;BMP180;54434;50.096;20.082;2022-08-21T14:25:41;98320.00;;;24.60
67822;BMP180;54434;50.096;20.082;2022-08-21T14:28:29;98326.20;;;24.70
67822;BMP180;54434;50.096;20.082;2022-08-21T14:31:27;98329.80;;;24.70
67822;BMP180;54434;50.096;20.082;2022-08-21T14:34:04;98334.80;;;24.60
67822;BMP180;54434;50.096;20.082;2022-08-21T14:36:56;98335.80;;;24.60
67822;BMP180;54434;50.096;20.082;2022-08-21T14:39:32;98331.60;;;24.50
67822;BMP180;54434;50.096;20.082;2022-08-21T14:42:09;98338.00;;;24.40
67822;BMP180;54434;50.096;20.082;2022-08-21T14:44:45;98338.80;;;24.26
67822;BMP180;54434;50.096;20.082;2022-08-21T14:47:21;98338.60;;;24.14
67822;BMP180;54434;50.096;20.082;2022-08-21T14:49:58;98342.20;;;24.00
67822;BMP180;54434;50.096;20.082;2022-08-21T14:52:34;98341.60;;;23.90
67822;BMP180;54434;50.096;20.082;2022-08-21T14:55:14;98330.80;;;23.80
67822;BMP180;54434;50.096;20.082;2022-08-21T14:57:53;98337.20;;;23.70
67822;BMP180;54434;50.096;20.082;2022-08-21T15:00:30;98343.80;;;23.50
67822;BMP180;54434;50.096;20.082;2022-08-21T15:03:09;98344.20;;;23.40
67822;BMP180;54434;50.096;20.082;2022-08-21T15:05:45;98345.20;;;23.30
67822;BMP180;54434;50.096;20.082;2022-08-21T15:08:21;98351.20;;;23.16
67822;BMP180;54434;50.096;20.082;2022-08-21T15:10:58;98351.20;;;23.00
67822;BMP180;54434;50.096;20.082;2022-08-21T15:13:47;98351.00;;;23.06
67822;BMP180;54434;50.096;20.082;2022-08-21T15:16:28;98354.80;;;23.06
67822;BMP180;54434;50.096;20.082;2022-08-21T15:19:05;98359.80;;;23.00
67822;BMP180;54434;50.096;20.082;2022-08-21T15:21:41;98352.80;;;23.00